createdAt,value
2018-08-22T00:00:24.007Z,9.37
2018-08-22T00:02:52.503Z,9.37
2018-08-22T00:05:21.004Z,8.97
2018-08-22T00:07:49.507Z,9.20
2018-08-22T00:10:18.027Z,9.90
2018-08-22T00:12:46.515Z,9.40
2018-08-22T00:15:15.100Z,9.53
2018-08-22T00:17:43.552Z,9.13
2018-08-22T00:20:12.055Z,9.87
2018-08-22T00:22:40.549Z,9.60
2018-08-22T00:25:09.050Z,8.93
2018-08-22T00:27:37.548Z,8.80
2018-08-22T00:30:06.499Z,9.43
2018-08-22T00:32:35.019Z,8.90
2018-08-22T00:35:03.963Z,9.37
2018-08-22T00:37:32.464Z,8.73
2018-08-22T00:40:00.968Z,8.77
2018-08-22T00:42:29.478Z,9.03
2018-08-22T00:44:57.999Z,9.47
2018-08-22T00:47:26.503Z,9.63
2018-08-22T00:49:55.027Z,8.57
2018-08-22T00:52:23.515Z,8.50
2018-08-22T00:54:52.203Z,9.27
2018-08-22T00:57:20.703Z,8.97
2018-08-22T00:59:49.223Z,9.47
2018-08-22T01:02:17.732Z,8.90
2018-08-22T01:04:46.215Z,9.47
2018-08-22T01:07:14.713Z,9.03
2018-08-22T01:09:43.216Z,9.23
2018-08-22T01:12:12.219Z,9.10
2018-08-22T01:14:40.722Z,9.47
2018-08-22T01:17:09.232Z,9.10
2018-08-22T01:19:37.733Z,8.90
2018-08-22T01:22:06.561Z,8.90
2018-08-22T01:24:35.055Z,9.10
2018-08-22T01:27:03.871Z,9.37
2018-08-22T01:29:32.363Z,8.73
2018-08-22T01:32:00.874Z,9.20
2018-08-22T01:34:29.376Z,9.37
2018-08-22T01:36:57.886Z,9.13
2018-08-22T01:39:26.391Z,8.87
2018-08-22T01:41:54.896Z,8.80
2018-08-22T01:44:23.395Z,9.30
2018-08-22T01:46:51.927Z,9.20
2018-08-22T01:49:20.503Z,10.00
2018-08-22T01:51:49.001Z,9.30
2018-08-22T01:54:17.499Z,9.33
2018-08-22T01:56:46.007Z,8.73
2018-08-22T01:59:14.503Z,9.27
2018-08-22T02:01:42.993Z,8.80
2018-08-22T02:04:11.499Z,9.00
2018-08-22T02:06:39.991Z,9.83
2018-08-22T02:09:10.903Z,9.03
2018-08-22T02:11:39.592Z,9.13
2018-08-22T02:14:08.704Z,8.77
2018-08-22T02:16:37.619Z,9.37
2018-08-22T02:19:06.880Z,9.30
2018-08-22T02:21:35.873Z,8.67
2018-08-22T02:24:04.382Z,8.97
2018-08-22T02:26:33.460Z,9.53
2018-08-22T02:29:01.967Z,9.17
2018-08-22T02:31:30.925Z,9.20
2018-08-22T02:33:59.430Z,8.90
2018-08-22T02:36:27.944Z,8.80
2018-08-22T02:38:56.448Z,9.07
2018-08-22T02:41:25.295Z,8.80
2018-08-22T02:43:53.795Z,8.40
2018-08-22T02:46:22.291Z,9.23
2018-08-22T02:48:55.411Z,9.27
2018-08-22T02:51:24.703Z,8.67
2018-08-22T02:53:53.388Z,9.20
2018-08-22T02:56:22.694Z,9.20
2018-08-22T02:58:51.679Z,8.60
2018-08-22T03:01:20.552Z,9.00
2018-08-22T03:03:49.056Z,9.87
2018-08-22T03:06:17.551Z,8.60
2018-08-22T03:08:46.051Z,9.40
2018-08-22T03:11:14.563Z,9.07
2018-08-22T03:13:43.059Z,8.73
2018-08-22T03:16:11.563Z,8.03
2018-08-22T03:18:40.056Z,8.63
2018-08-22T03:21:08.567Z,9.13
2018-08-22T03:23:37.060Z,8.50
2018-08-22T03:26:05.609Z,8.83
2018-08-22T03:28:34.095Z,8.63
2018-08-22T03:31:02.590Z,8.53
2018-08-22T03:33:31.096Z,8.97
2018-08-22T03:35:59.603Z,8.87
2018-08-22T03:38:28.119Z,8.37
2018-08-22T03:40:56.623Z,8.93
2018-08-22T03:43:25.128Z,8.27
2018-08-22T03:45:53.619Z,7.97
2018-08-22T03:48:22.111Z,9.33
2018-08-22T03:50:50.607Z,8.23
2018-08-22T03:53:19.101Z,8.53
2018-08-22T03:55:47.595Z,8.27
2018-08-22T03:58:16.083Z,9.03
2018-08-22T04:00:44.634Z,8.87
2018-08-22T04:03:13.137Z,9.00
2018-08-22T04:05:41.647Z,8.53
2018-08-22T04:08:10.159Z,9.17
2018-08-22T04:10:38.660Z,9.13
2018-08-22T04:13:07.337Z,8.03
2018-08-22T04:15:35.890Z,7.87
2018-08-22T04:18:04.411Z,8.30
2018-08-22T04:20:32.907Z,9.07
2018-08-22T04:23:01.403Z,8.80
2018-08-22T04:25:29.907Z,8.73
2018-08-22T04:27:58.420Z,9.57
2018-08-22T04:30:26.927Z,9.77
2018-08-22T04:32:55.424Z,10.70
2018-08-22T04:35:23.950Z,12.27
2018-08-22T04:37:52.450Z,12.17
2018-08-22T04:40:20.965Z,13.20
2018-08-22T04:42:49.467Z,13.73
2018-08-22T04:45:17.963Z,14.60
2018-08-22T04:47:46.479Z,15.83
2018-08-22T04:50:14.979Z,15.60
2018-08-22T04:52:43.499Z,17.17
2018-08-22T04:55:12.224Z,16.97
2018-08-22T04:57:40.731Z,17.53
2018-08-22T05:00:10.532Z,17.10
2018-08-22T05:02:39.504Z,17.83
2018-08-22T05:05:08.495Z,16.93
2018-08-22T05:07:36.996Z,17.30
2018-08-22T05:10:06.104Z,17.57
2018-08-22T05:12:34.644Z,16.63
2018-08-22T05:15:03.165Z,17.30
2018-08-22T05:17:31.667Z,17.13
2018-08-22T05:20:00.175Z,16.57
2018-08-22T05:22:28.675Z,16.67
2018-08-22T05:24:57.212Z,15.10
2018-08-22T05:27:25.712Z,16.10
2018-08-22T05:29:54.226Z,15.33
2018-08-22T05:32:22.735Z,15.13
2018-08-22T05:34:51.243Z,14.80
2018-08-22T05:37:19.744Z,13.70
2018-08-22T05:39:48.255Z,13.47
2018-08-22T05:42:16.777Z,12.53
2018-08-22T05:44:45.291Z,12.17
2018-08-22T05:47:13.807Z,13.20
2018-08-22T05:49:42.316Z,11.87
2018-08-22T05:52:10.831Z,11.77
2018-08-22T05:54:39.351Z,11.67
2018-08-22T05:57:07.871Z,11.63
2018-08-22T05:59:36.388Z,12.27
2018-08-22T06:02:04.911Z,11.90
2018-08-22T06:04:33.407Z,11.27
2018-08-22T06:07:01.919Z,11.63
2018-08-22T06:09:30.434Z,11.30
2018-08-22T06:11:58.940Z,10.57
2018-08-22T06:14:27.435Z,11.33
2018-08-22T06:16:55.932Z,10.80
2018-08-22T06:19:24.777Z,10.57
2018-08-22T06:21:53.284Z,11.03
2018-08-22T06:24:21.794Z,11.07
2018-08-22T06:26:50.533Z,10.57
2018-08-22T06:29:19.033Z,10.50
2018-08-22T06:31:47.527Z,10.40
2018-08-22T06:34:16.035Z,10.73
2018-08-22T06:36:44.540Z,10.23
2018-08-22T06:39:13.047Z,9.70
2018-08-22T06:41:41.631Z,10.07
2018-08-22T06:44:10.180Z,10.40
2018-08-22T06:46:38.647Z,11.03
2018-08-22T06:49:07.139Z,9.90
2018-08-22T06:51:35.638Z,10.00
2018-08-22T06:54:04.207Z,10.40
2018-08-22T06:56:32.712Z,10.27
2018-08-22T06:59:01.206Z,9.27
2018-08-22T07:01:29.706Z,9.60
2018-08-22T07:03:58.198Z,9.50
2018-08-22T07:06:26.693Z,9.73
2018-08-22T07:08:55.196Z,9.77
2018-08-22T07:11:23.692Z,9.13
2018-08-22T07:13:52.190Z,9.03
2018-08-22T07:16:20.688Z,9.50
2018-08-22T07:18:49.199Z,9.63
2018-08-22T07:21:17.945Z,9.13
2018-08-22T07:23:46.575Z,9.47
2018-08-22T07:26:15.072Z,8.60
2018-08-22T07:28:43.823Z,8.90
2018-08-22T07:31:12.322Z,8.90
2018-08-22T07:33:40.819Z,9.10
2018-08-22T07:36:09.360Z,8.57
2018-08-22T07:38:37.878Z,9.03
2018-08-22T07:41:06.374Z,8.53
2018-08-22T07:43:34.868Z,9.10
2018-08-22T07:46:03.420Z,9.20
2018-08-22T07:48:31.931Z,8.67
2018-08-22T07:51:00.454Z,8.87
2018-08-22T07:53:29.058Z,8.87
2018-08-22T07:55:57.477Z,7.87
2018-08-22T07:58:25.979Z,8.03
2018-08-22T08:00:54.484Z,8.80
2018-08-22T08:03:22.980Z,8.77
2018-08-22T08:05:51.487Z,8.03
2018-08-22T08:08:20.000Z,8.27
2018-08-22T08:10:48.521Z,8.33
2018-08-22T08:13:22.323Z,8.17
2018-08-22T08:15:50.821Z,8.50
2018-08-22T08:18:19.319Z,8.40
2018-08-22T08:20:47.814Z,7.90
2018-08-22T08:23:16.308Z,8.20
2018-08-22T08:25:44.815Z,8.37
2018-08-22T08:28:13.315Z,7.80
2018-08-22T08:30:41.838Z,9.37
2018-08-22T08:33:10.364Z,7.93
2018-08-22T08:35:38.931Z,7.50
2018-08-22T08:38:07.391Z,7.50
2018-08-22T08:40:35.891Z,8.37
2018-08-22T08:43:04.393Z,7.83
2018-08-22T08:45:32.881Z,7.97
2018-08-22T08:48:01.426Z,7.70
2018-08-22T08:50:29.929Z,7.50
2018-08-22T08:52:58.500Z,7.43
2018-08-22T08:55:27.066Z,8.10
2018-08-22T08:57:55.527Z,7.30
2018-08-22T09:00:24.056Z,7.23
2018-08-22T09:02:52.580Z,7.47
2018-08-22T09:05:21.081Z,7.57
2018-08-22T09:07:49.576Z,7.70
2018-08-22T09:10:18.081Z,7.40
2018-08-22T09:12:46.655Z,7.40
2018-08-22T09:15:15.153Z,7.30
2018-08-22T09:17:43.663Z,7.47
2018-08-22T09:20:12.166Z,7.33
2018-08-22T09:22:40.687Z,7.53
2018-08-22T09:25:09.175Z,7.17
2018-08-22T09:27:37.671Z,7.10
2018-08-22T09:30:06.536Z,6.97
2018-08-22T09:32:35.040Z,7.17
2018-08-22T09:35:03.532Z,7.60
2018-08-22T09:37:32.447Z,7.20
2018-08-22T09:40:01.229Z,6.60
2018-08-22T09:42:29.740Z,7.10
2018-08-22T09:44:58.252Z,7.57
2018-08-22T09:47:26.763Z,7.00
2018-08-22T09:49:55.270Z,6.80
2018-08-22T09:52:23.770Z,6.30
2018-08-22T09:55:01.317Z,6.47
2018-08-22T09:57:30.620Z,6.70
2018-08-22T09:59:59.139Z,6.90
2018-08-22T10:02:27.643Z,6.27
2018-08-22T10:04:56.563Z,6.27
2018-08-22T10:07:25.101Z,6.17
2018-08-22T10:09:53.648Z,6.17
2018-08-22T10:12:22.423Z,6.53
2018-08-22T10:14:50.966Z,6.13
2018-08-22T10:17:19.527Z,6.00
2018-08-22T10:19:47.979Z,6.13
2018-08-22T10:22:16.476Z,6.50
2018-08-22T10:24:44.973Z,7.20
2018-08-22T10:27:13.488Z,6.17
2018-08-22T10:29:41.996Z,5.93
2018-08-22T10:32:10.979Z,6.43
2018-08-22T10:34:39.483Z,6.57
2018-08-22T10:37:07.975Z,6.43
2018-08-22T10:39:36.493Z,7.23
2018-08-22T10:42:05.008Z,6.10
2018-08-22T10:44:33.835Z,5.67
2018-08-22T10:47:02.319Z,6.20
2018-08-22T10:49:30.803Z,6.17
2018-08-22T10:51:59.335Z,6.23
2018-08-22T10:54:27.820Z,6.07
2018-08-22T10:56:56.557Z,7.87
2018-08-22T10:59:25.052Z,5.40
2018-08-22T11:01:53.566Z,6.00
2018-08-22T11:04:22.060Z,5.57
2018-08-22T11:06:50.551Z,5.60
2018-08-22T11:09:19.043Z,5.83
2018-08-22T11:11:47.552Z,5.67
2018-08-22T11:14:16.055Z,5.13
2018-08-22T11:16:44.915Z,6.23
2018-08-22T11:19:13.420Z,5.43
2018-08-22T11:21:53.120Z,6.90
2018-08-22T11:24:32.755Z,5.50
2018-08-22T11:27:12.439Z,5.30
2018-08-22T11:29:52.099Z,5.70
2018-08-22T11:32:31.792Z,5.83
2018-08-22T11:34:59.141Z,5.27
2018-08-22T11:37:27.654Z,5.50
2018-08-22T11:39:56.151Z,5.30
2018-08-22T11:42:24.660Z,5.30
2018-08-22T11:44:53.154Z,5.37
2018-08-22T11:47:21.678Z,5.60
2018-08-22T11:49:50.192Z,5.57
2018-08-22T11:52:18.687Z,5.10
2018-08-22T11:54:47.192Z,5.20
2018-08-22T11:57:15.685Z,5.97
2018-08-22T11:59:44.175Z,5.23
2018-08-22T12:02:12.676Z,5.43
2018-08-22T12:04:41.179Z,5.07
2018-08-22T12:07:09.672Z,5.67
2018-08-22T12:09:38.189Z,6.07
2018-08-22T12:12:06.695Z,5.67
2018-08-22T12:14:35.241Z,5.30
2018-08-22T12:17:03.752Z,5.43
2018-08-22T12:19:32.248Z,5.23
2018-08-22T12:22:00.751Z,5.47
2018-08-22T12:24:29.243Z,5.37
2018-08-22T12:26:57.767Z,5.53
2018-08-22T12:29:26.273Z,5.00
2018-08-22T12:31:54.775Z,5.10
2018-08-22T12:34:23.271Z,5.30
2018-08-22T12:36:51.768Z,5.67
2018-08-22T12:39:20.332Z,4.90
2018-08-22T12:41:48.839Z,5.03
2018-08-22T12:44:17.355Z,5.10
2018-08-22T12:46:45.868Z,5.37
2018-08-22T12:49:15.295Z,5.67
2018-08-22T12:51:43.791Z,5.17
2018-08-22T12:54:12.327Z,5.47
2018-08-22T12:56:40.905Z,4.90
2018-08-22T12:59:09.411Z,5.17
2018-08-22T13:01:37.907Z,5.50
2018-08-22T13:04:07.176Z,4.93
2018-08-22T13:06:35.667Z,5.07
2018-08-22T13:09:05.777Z,5.27
2018-08-22T13:11:34.367Z,5.90
2018-08-22T13:14:02.795Z,5.07
2018-08-22T13:16:31.289Z,5.13
2018-08-22T13:18:59.806Z,5.57
2018-08-22T13:21:28.309Z,5.80
2018-08-22T13:23:56.848Z,4.87
2018-08-22T13:26:25.312Z,4.90
2018-08-22T13:28:53.835Z,4.90
2018-08-22T13:31:22.731Z,5.40
2018-08-22T13:33:51.231Z,6.83
2018-08-22T13:36:19.812Z,4.80
2018-08-22T13:38:48.284Z,5.30
2018-08-22T13:41:16.778Z,5.40
2018-08-22T13:43:45.320Z,4.90
2018-08-22T13:46:13.804Z,5.20
2018-08-22T13:48:42.308Z,5.13
2018-08-22T13:51:10.807Z,4.93
2018-08-22T13:53:39.659Z,4.87
2018-08-22T13:56:08.213Z,5.00
2018-08-22T13:58:36.671Z,5.50
2018-08-22T14:01:05.202Z,4.90
2018-08-22T14:03:33.703Z,5.57
2018-08-22T14:06:02.207Z,5.23
2018-08-22T14:08:30.703Z,5.40
2018-08-22T14:10:59.208Z,4.80
2018-08-22T14:13:27.722Z,5.57
2018-08-22T14:15:56.302Z,5.33
2018-08-22T14:18:24.807Z,5.30
2018-08-22T14:20:53.296Z,4.60
2018-08-22T14:23:21.815Z,5.40
2018-08-22T14:25:50.320Z,5.43
2018-08-22T14:28:18.867Z,5.43
2018-08-22T14:30:47.351Z,5.20
2018-08-22T14:33:15.836Z,5.50
2018-08-22T14:35:44.337Z,5.53
2018-08-22T14:38:12.898Z,5.70
2018-08-22T14:40:41.411Z,5.20
2018-08-22T14:43:09.916Z,4.90
2018-08-22T14:45:38.428Z,4.80
2018-08-22T14:48:06.919Z,5.17
2018-08-22T14:50:35.433Z,5.27
2018-08-22T14:53:03.931Z,5.30
2018-08-22T14:55:32.475Z,5.30
2018-08-22T14:58:00.947Z,5.50
2018-08-22T15:00:29.451Z,4.90
2018-08-22T15:02:58.579Z,5.50
2018-08-22T15:05:26.737Z,5.30
2018-08-22T15:07:55.246Z,5.30
2018-08-22T15:10:23.755Z,5.00
2018-08-22T15:12:52.262Z,5.10
2018-08-22T15:15:20.797Z,4.83
2018-08-22T15:17:49.304Z,4.80
2018-08-22T15:20:17.829Z,6.37
2018-08-22T15:22:46.323Z,5.33
2018-08-22T15:25:14.819Z,5.30
2018-08-22T15:27:43.331Z,5.60
2018-08-22T15:30:11.845Z,5.00
2018-08-22T15:32:40.351Z,5.13
2018-08-22T15:35:08.843Z,6.00
2018-08-22T15:37:37.359Z,5.33
2018-08-22T15:40:06.424Z,4.80
2018-08-22T15:42:34.920Z,5.37
2018-08-22T15:45:03.427Z,5.00
2018-08-22T15:47:31.986Z,5.23
2018-08-22T15:50:00.456Z,5.97
2018-08-22T15:52:28.951Z,5.50
2018-08-22T15:55:10.460Z,5.23
2018-08-22T15:57:51.870Z,4.77
2018-08-22T16:00:37.352Z,5.20
2018-08-22T16:03:08.179Z,5.17
2018-08-22T16:05:37.773Z,5.23
2018-08-22T16:08:07.074Z,5.23
2018-08-22T16:10:35.780Z,5.40
2018-08-22T16:13:04.272Z,5.37
2018-08-22T16:15:34.275Z,5.33
2018-08-22T16:18:06.448Z,5.47
2018-08-22T16:20:44.823Z,5.07
2018-08-22T16:23:13.332Z,5.10
2018-08-22T16:25:47.536Z,5.67
2018-08-22T16:28:16.081Z,6.53
2018-08-22T16:30:56.690Z,5.63
2018-08-22T16:33:13.074Z,5.00
2018-08-22T16:35:41.567Z,5.37
2018-08-22T16:38:11.284Z,5.03
2018-08-22T16:40:42.451Z,5.13
2018-08-22T16:43:10.959Z,5.17
2018-08-22T16:45:45.547Z,5.23
2018-08-22T16:48:19.531Z,5.27
2018-08-22T16:50:48.883Z,5.57
2018-08-22T16:53:17.384Z,5.30
2018-08-22T16:55:46.807Z,5.07
2018-08-22T16:58:15.799Z,5.20
2018-08-22T17:00:45.776Z,5.20
2018-08-22T17:03:14.324Z,5.00
2018-08-22T17:05:42.823Z,5.47
2018-08-22T17:08:11.340Z,5.50
2018-08-22T17:10:57.539Z,5.43
2018-08-22T17:13:43.752Z,5.33
2018-08-22T17:16:12.284Z,5.30
2018-08-22T17:18:41.236Z,5.53
2018-08-22T17:21:10.093Z,5.47
2018-08-22T17:23:39.221Z,5.37
2018-08-22T17:26:12.837Z,6.20
2018-08-22T17:28:43.345Z,6.10
2018-08-22T17:31:12.647Z,7.73
2018-08-22T17:33:47.934Z,9.07
2018-08-22T17:36:16.427Z,15.17
2018-08-22T17:38:47.229Z,12.40
2018-08-22T17:41:16.295Z,14.17
2018-08-22T17:44:12.874Z,11.37
2018-08-22T17:46:49.129Z,14.93
2018-08-22T17:49:17.744Z,9.10
2018-08-22T17:51:58.771Z,10.80
2018-08-22T17:54:27.952Z,10.20
2018-08-22T17:57:09.537Z,12.07
2018-08-22T17:59:38.543Z,12.07
2018-08-22T18:02:07.081Z,11.50
2018-08-22T18:05:02.262Z,12.03
2018-08-22T18:07:30.803Z,12.23
2018-08-22T18:09:59.352Z,12.47
2018-08-22T18:12:28.362Z,10.37
2018-08-22T18:14:58.051Z,10.47
2018-08-22T18:17:26.552Z,8.73
2018-08-22T18:19:55.047Z,11.47
2018-08-22T18:22:27.104Z,8.77
2018-08-22T18:24:55.637Z,7.07
2018-08-22T18:27:24.551Z,9.53
2018-08-22T18:29:53.008Z,8.27
2018-08-22T18:32:21.522Z,10.63
2018-08-22T18:34:59.448Z,11.40
2018-08-22T18:37:29.054Z,8.47
2018-08-22T18:40:16.520Z,9.73
2018-08-22T18:42:51.566Z,9.43
2018-08-22T18:45:20.922Z,10.37
2018-08-22T18:47:49.435Z,10.17
2018-08-22T18:50:18.297Z,7.37
2018-08-22T18:52:51.219Z,9.00
2018-08-22T18:55:21.880Z,10.17
2018-08-22T18:57:50.643Z,7.17
2018-08-22T19:00:19.181Z,10.67
2018-08-22T19:02:49.996Z,7.70
2018-08-22T19:05:20.872Z,7.90
2018-08-22T19:08:00.678Z,9.13
2018-08-22T19:10:31.743Z,7.90
2018-08-22T19:13:11.236Z,11.37
2018-08-22T19:15:39.744Z,10.10
2018-08-22T19:18:09.464Z,11.67
2018-08-22T19:20:38.457Z,9.67
2018-08-22T19:23:06.952Z,7.80
2018-08-22T19:25:35.478Z,8.53
2018-08-22T19:28:04.212Z,8.13
2018-08-22T19:30:35.689Z,9.03
2018-08-22T19:33:04.653Z,8.00
2018-08-22T19:35:33.162Z,8.30
2018-08-22T19:38:04.613Z,8.23
2018-08-22T19:40:33.120Z,7.70
2018-08-22T19:43:02.063Z,7.53
2018-08-22T19:45:31.147Z,8.93
2018-08-22T19:47:59.652Z,7.53
2018-08-22T19:50:29.259Z,8.70
2018-08-22T19:52:57.767Z,8.53
2018-08-22T19:55:26.271Z,8.63
2018-08-22T19:57:54.763Z,8.17
2018-08-22T20:00:23.265Z,8.67
2018-08-22T20:02:51.770Z,7.67
2018-08-22T20:05:20.274Z,7.73
2018-08-22T20:07:48.779Z,9.37
2018-08-22T20:10:21.008Z,8.43
2018-08-22T20:12:51.602Z,7.70
2018-08-22T20:15:20.360Z,9.17
2018-08-22T20:17:50.555Z,8.43
2018-08-22T20:20:19.816Z,7.90
2018-08-22T20:22:51.420Z,9.53
2018-08-22T20:25:19.911Z,8.17
2018-08-22T20:27:48.412Z,8.77
2018-08-22T20:30:20.400Z,8.90
2018-08-22T20:32:59.540Z,7.93
2018-08-22T20:35:30.281Z,8.67
2018-08-22T20:38:00.096Z,8.30
2018-08-22T20:40:28.955Z,8.57
2018-08-22T20:42:57.559Z,8.50
2018-08-22T20:45:32.079Z,9.40
2018-08-22T20:48:05.817Z,8.53
2018-08-22T20:50:35.376Z,8.70
2018-08-22T20:53:05.288Z,8.57
2018-08-22T20:55:34.299Z,8.57
2018-08-22T20:58:03.585Z,7.83
2018-08-22T21:00:34.786Z,8.23
2018-08-22T21:03:03.717Z,7.83
2018-08-22T21:05:32.196Z,7.90
2018-08-22T21:08:00.706Z,9.00
2018-08-22T21:10:29.209Z,8.17
2018-08-22T21:12:57.712Z,8.23
2018-08-22T21:15:26.223Z,8.83
2018-08-22T21:17:54.728Z,7.97
2018-08-22T21:20:26.051Z,10.03
2018-08-22T21:22:56.291Z,8.10
2018-08-22T21:25:24.793Z,7.97
2018-08-22T21:27:53.943Z,8.37
2018-08-22T21:30:22.478Z,8.03
2018-08-22T21:32:50.960Z,7.80
2018-08-22T21:35:24.027Z,8.97
2018-08-22T21:37:53.032Z,8.90
2018-08-22T21:40:22.292Z,8.90
2018-08-22T21:42:51.344Z,8.40
2018-08-22T21:45:19.840Z,7.40
2018-08-22T21:47:48.343Z,8.10
2018-08-22T21:50:16.843Z,8.13
2018-08-22T21:53:00.807Z,8.27
2018-08-22T21:55:37.144Z,8.93
2018-08-22T21:58:06.679Z,7.90
2018-08-22T22:00:35.220Z,8.10
2018-08-22T22:03:03.735Z,8.07
2018-08-22T22:05:44.457Z,8.20
2018-08-22T22:08:12.957Z,7.97
2018-08-22T22:10:41.843Z,9.00
2018-08-22T22:13:11.152Z,8.10
2018-08-22T22:15:43.825Z,7.83
2018-08-22T22:18:12.334Z,8.57
2018-08-22T22:20:41.205Z,8.23
2018-08-22T22:23:09.739Z,7.70
2018-08-22T22:25:38.229Z,8.30
2018-08-22T22:28:06.763Z,8.27
2018-08-22T22:30:35.259Z,9.13
2018-08-22T22:33:03.751Z,7.83
2018-08-22T22:35:37.911Z,8.43
2018-08-22T22:38:10.716Z,7.83
2018-08-22T22:40:40.792Z,7.80
2018-08-22T22:43:11.595Z,8.00
2018-08-22T22:45:40.131Z,8.23
2018-08-22T22:48:08.623Z,8.20
2018-08-22T22:50:37.400Z,8.00
2018-08-22T22:53:06.530Z,8.33
2018-08-22T22:55:35.036Z,7.63
2018-08-22T22:58:04.089Z,7.70
2018-08-22T23:00:32.595Z,8.30
2018-08-22T23:03:06.028Z,8.00
2018-08-22T23:05:34.526Z,7.97
2018-08-22T23:08:03.425Z,8.53
2018-08-22T23:10:31.920Z,7.90
2018-08-22T23:13:00.704Z,8.37
2018-08-22T23:15:30.711Z,7.57
2018-08-22T23:18:00.616Z,8.37
2018-08-22T23:20:42.959Z,8.23
2018-08-22T23:23:36.133Z,8.13
2018-08-22T23:26:13.017Z,8.47
2018-08-22T23:28:42.727Z,8.23
2018-08-22T23:31:11.234Z,8.77
2018-08-22T23:33:39.728Z,8.43
2018-08-22T23:36:08.225Z,8.37
2018-08-22T23:38:38.695Z,7.77
2018-08-22T23:41:07.204Z,7.90
2018-08-22T23:43:44.143Z,8.07
2018-08-22T23:46:13.919Z,8.03
2018-08-22T23:48:42.599Z,7.70
2018-08-22T23:51:13.440Z,7.87
2018-08-22T23:53:46.415Z,8.17
2018-08-22T23:56:20.973Z,8.20
2018-08-22T23:58:50.176Z,8.13
